createdAt,value
2018-12-06T00:01:37.254Z,93.63
2018-12-06T00:04:06.339Z,93.10
2018-12-06T00:06:35.411Z,87.50
2018-12-06T00:09:05.426Z,81.23
2018-12-06T00:11:36.362Z,92.87
2018-12-06T00:14:05.447Z,90.27
2018-12-06T00:16:34.613Z,89.23
2018-12-06T00:19:09.373Z,99.20
2018-12-06T00:21:38.447Z,91.97
2018-12-06T00:24:07.625Z,93.83
2018-12-06T00:26:36.770Z,87.63
2018-12-06T00:29:06.148Z,91.00
2018-12-06T00:31:35.260Z,94.00
2018-12-06T00:34:04.356Z,98.27
2018-12-06T00:36:33.420Z,95.37
2018-12-06T00:39:02.652Z,87.90
2018-12-06T00:41:33.690Z,93.73
2018-12-06T00:44:02.991Z,79.00
2018-12-06T00:46:32.067Z,88.67
2018-12-06T00:49:01.295Z,97.90
2018-12-06T00:51:30.402Z,94.97
2018-12-06T00:53:59.558Z,104.13
2018-12-06T00:56:28.612Z,82.30
2018-12-06T00:58:57.772Z,84.90
2018-12-06T01:01:26.875Z,89.77
2018-12-06T01:03:55.992Z,83.03
2018-12-06T01:06:25.041Z,85.60
2018-12-06T01:08:54.108Z,90.87
2018-12-06T01:11:23.519Z,88.33
2018-12-06T01:13:52.778Z,92.37
2018-12-06T01:16:22.017Z,100.90
2018-12-06T01:18:51.356Z,91.00
2018-12-06T01:21:20.595Z,103.43
2018-12-06T01:23:49.681Z,102.40
2018-12-06T01:26:18.819Z,98.37
2018-12-06T01:28:47.911Z,109.30
2018-12-06T01:31:17.000Z,107.97
2018-12-06T01:33:46.093Z,117.13
2018-12-06T01:36:15.287Z,119.47
2018-12-06T01:38:44.399Z,126.90
2018-12-06T01:41:13.450Z,129.60
2018-12-06T01:43:42.540Z,125.33
2018-12-06T01:46:11.626Z,133.10
2018-12-06T01:48:40.807Z,121.30
2018-12-06T01:51:09.877Z,135.37
2018-12-06T01:53:38.961Z,133.53
2018-12-06T01:56:08.044Z,138.63
2018-12-06T01:58:37.224Z,135.07
2018-12-06T02:01:06.392Z,140.93
2018-12-06T02:03:35.466Z,140.67
2018-12-06T02:06:11.237Z,140.67
2018-12-06T02:08:40.285Z,136.27
2018-12-06T02:11:09.432Z,130.90
2018-12-06T02:13:38.477Z,140.20
2018-12-06T02:16:07.590Z,140.53
2018-12-06T02:18:36.684Z,131.37
2018-12-06T02:21:05.866Z,136.57
2018-12-06T02:23:34.995Z,146.67
2018-12-06T02:26:04.371Z,142.30
2018-12-06T02:28:33.603Z,146.40
2018-12-06T02:31:02.698Z,136.40
2018-12-06T02:33:31.804Z,150.20
2018-12-06T02:36:00.865Z,150.07
2018-12-06T02:38:30.221Z,153.93
2018-12-06T02:40:59.508Z,154.33
2018-12-06T02:43:28.816Z,147.17
2018-12-06T02:45:57.898Z,160.27
2018-12-06T02:48:26.974Z,161.80
2018-12-06T02:50:56.074Z,153.80
2018-12-06T02:53:25.123Z,160.73
2018-12-06T02:55:54.237Z,159.97
2018-12-06T02:58:23.275Z,150.97
2018-12-06T03:00:52.353Z,162.33
2018-12-06T03:03:21.684Z,159.10
2018-12-06T03:05:50.827Z,188.40
2018-12-06T03:08:21.479Z,185.43
2018-12-06T03:10:50.564Z,184.47
2018-12-06T03:13:19.626Z,181.00
2018-12-06T03:15:49.000Z,190.27
2018-12-06T03:18:18.072Z,191.17
2018-12-06T03:20:47.145Z,169.37
2018-12-06T03:23:16.215Z,177.37
2018-12-06T03:25:45.351Z,183.00
2018-12-06T03:28:14.424Z,171.00
2018-12-06T03:30:43.675Z,173.67
2018-12-06T03:33:19.323Z,178.03
2018-12-06T03:35:48.482Z,187.70
2018-12-06T03:38:17.707Z,166.60
2018-12-06T03:40:46.791Z,173.00
2018-12-06T03:43:15.924Z,176.27
2018-12-06T03:45:46.321Z,192.23
2018-12-06T03:48:15.546Z,172.07
2018-12-06T03:50:44.708Z,170.00
2018-12-06T03:53:13.772Z,182.63
2018-12-06T03:55:43.124Z,166.53
2018-12-06T03:58:12.190Z,176.30
2018-12-06T04:00:41.266Z,164.83
2018-12-06T04:03:10.397Z,173.70
2018-12-06T04:05:39.525Z,166.87
2018-12-06T04:08:08.783Z,173.33
2018-12-06T04:10:39.009Z,176.33
2018-12-06T04:13:08.124Z,187.10
2018-12-06T04:15:37.272Z,187.33
2018-12-06T04:18:06.368Z,174.73
2018-12-06T04:20:35.416Z,206.53
2018-12-06T04:23:04.528Z,161.20
2018-12-06T04:25:33.592Z,170.23
2018-12-06T04:28:02.850Z,170.80
2018-12-06T04:30:31.930Z,165.63
2018-12-06T04:33:01.062Z,175.87
2018-12-06T04:35:30.195Z,167.43
2018-12-06T04:37:59.293Z,179.30
2018-12-06T04:40:28.356Z,161.83
2018-12-06T04:42:57.476Z,150.57
2018-12-06T04:45:26.566Z,173.80
2018-12-06T04:47:55.979Z,166.77
2018-12-06T04:50:25.138Z,171.23
2018-12-06T04:52:54.440Z,158.20
2018-12-06T04:55:23.824Z,163.57
2018-12-06T04:57:52.928Z,149.50
2018-12-06T05:00:23.544Z,148.53
2018-12-06T05:02:52.766Z,143.87
2018-12-06T05:05:21.931Z,164.67
2018-12-06T05:07:50.990Z,152.60
2018-12-06T05:10:20.047Z,149.17
2018-12-06T05:12:49.117Z,144.97
2018-12-06T05:15:18.173Z,158.47
2018-12-06T05:17:47.546Z,152.20
2018-12-06T05:20:16.608Z,155.23
2018-12-06T05:22:45.702Z,143.07
2018-12-06T05:25:14.814Z,133.97
2018-12-06T05:27:43.959Z,127.30
2018-12-06T05:30:13.078Z,144.00
2018-12-06T05:32:42.166Z,131.37
2018-12-06T05:35:11.280Z,116.57
2018-12-06T05:37:40.391Z,138.20
2018-12-06T05:40:09.799Z,143.33
2018-12-06T05:42:38.895Z,135.30
2018-12-06T05:45:09.481Z,144.40
2018-12-06T05:47:38.591Z,151.63
2018-12-06T05:50:08.155Z,149.97
2018-12-06T05:52:37.487Z,149.23
2018-12-06T05:55:06.567Z,129.23
2018-12-06T05:57:35.761Z,141.53
2018-12-06T06:00:06.287Z,121.90
2018-12-06T06:02:35.545Z,126.10
2018-12-06T06:05:06.445Z,131.30
2018-12-06T06:07:35.915Z,129.17
2018-12-06T06:10:06.497Z,125.27
2018-12-06T06:12:35.612Z,123.20
2018-12-06T06:15:06.167Z,142.23
2018-12-06T06:17:35.322Z,132.07
2018-12-06T06:20:04.978Z,127.50
2018-12-06T06:22:39.471Z,143.67
2018-12-06T06:25:08.744Z,131.33
2018-12-06T06:27:37.969Z,125.37
2018-12-06T06:30:07.386Z,114.90
2018-12-06T06:32:36.725Z,113.10
2018-12-06T06:35:06.626Z,120.67
2018-12-06T06:37:35.682Z,109.33
2018-12-06T06:40:05.618Z,111.57
2018-12-06T06:42:34.912Z,109.23
2018-12-06T06:45:04.802Z,106.60
2018-12-06T06:47:33.904Z,106.80
2018-12-06T06:50:03.120Z,119.77
2018-12-06T06:52:32.256Z,108.87
2018-12-06T06:55:01.309Z,104.07
2018-12-06T06:57:30.403Z,116.30
2018-12-06T06:59:59.481Z,108.80
2018-12-06T07:02:28.549Z,106.80
2018-12-06T07:04:57.607Z,120.27
2018-12-06T07:07:26.762Z,109.30
2018-12-06T07:09:55.840Z,116.40
2018-12-06T07:12:24.953Z,124.60
2018-12-06T07:14:54.246Z,113.37
2018-12-06T07:17:23.414Z,101.63
2018-12-06T07:19:52.748Z,104.90
2018-12-06T07:22:21.837Z,100.87
2018-12-06T07:24:50.987Z,106.57
2018-12-06T07:27:20.128Z,106.17
2018-12-06T07:29:49.227Z,111.83
2018-12-06T07:32:18.273Z,117.57
2018-12-06T07:34:47.318Z,111.50
2018-12-06T07:37:16.771Z,111.73
2018-12-06T07:39:45.812Z,115.90
2018-12-06T07:42:14.887Z,120.83
2018-12-06T07:44:43.951Z,121.23
2018-12-06T07:47:13.004Z,117.63
2018-12-06T07:49:42.212Z,108.60
2018-12-06T07:52:11.452Z,120.17
2018-12-06T07:54:40.484Z,104.50
2018-12-06T07:57:09.512Z,118.90
2018-12-06T07:59:38.582Z,116.67
2018-12-06T08:02:07.656Z,120.03
2018-12-06T08:04:36.814Z,123.97
2018-12-06T08:07:05.997Z,117.70
2018-12-06T08:09:35.045Z,122.73
2018-12-06T08:12:04.204Z,113.60
2018-12-06T08:14:33.405Z,122.20
2018-12-06T08:17:02.562Z,119.43
2018-12-06T08:19:31.997Z,116.27
2018-12-06T08:22:01.020Z,111.43
2018-12-06T08:24:30.094Z,110.97
2018-12-06T08:26:59.212Z,116.13
2018-12-06T08:29:28.280Z,112.80
2018-12-06T08:31:57.431Z,113.70
2018-12-06T08:34:26.495Z,114.67
2018-12-06T08:36:55.873Z,117.83
2018-12-06T08:39:25.200Z,117.17
2018-12-06T08:41:54.440Z,104.47
2018-12-06T08:44:23.485Z,119.00
2018-12-06T08:46:52.756Z,111.23
2018-12-06T08:49:21.775Z,122.23
2018-12-06T08:51:50.798Z,116.97
2018-12-06T08:54:20.614Z,106.50
2018-12-06T08:56:50.288Z,127.20
2018-12-06T08:59:19.562Z,126.30
2018-12-06T09:01:49.358Z,128.63
2018-12-06T09:04:19.135Z,124.77
2018-12-06T09:06:48.706Z,142.00
2018-12-06T09:09:18.647Z,145.37
2018-12-06T09:11:48.251Z,131.83
2018-12-06T09:14:17.953Z,125.63
2018-12-06T09:16:47.637Z,136.03
2018-12-06T09:19:17.309Z,116.03
2018-12-06T09:21:47.150Z,120.30
2018-12-06T09:24:17.084Z,110.30
2018-12-06T09:26:46.641Z,112.83
2018-12-06T09:29:16.265Z,109.53
2018-12-06T09:31:46.059Z,110.00
2018-12-06T09:34:15.642Z,111.37
2018-12-06T09:36:45.235Z,110.83
2018-12-06T09:39:14.891Z,111.73
2018-12-06T09:41:44.332Z,105.73
2018-12-06T09:44:14.073Z,111.53
2018-12-06T09:46:44.007Z,116.00
2018-12-06T09:49:13.311Z,109.60
2018-12-06T09:51:43.071Z,110.97
2018-12-06T09:54:12.783Z,103.60
2018-12-06T09:56:42.467Z,100.30
2018-12-06T09:59:11.996Z,109.77
2018-12-06T10:01:41.490Z,108.30
2018-12-06T10:04:11.263Z,108.53
2018-12-06T10:06:40.830Z,103.60
2018-12-06T10:09:10.464Z,95.70
2018-12-06T10:11:40.078Z,105.20
2018-12-06T10:14:16.348Z,99.60
2018-12-06T10:16:46.236Z,99.03
2018-12-06T10:19:15.798Z,96.27
2018-12-06T10:21:45.297Z,98.53
2018-12-06T10:24:14.796Z,98.20
2018-12-06T10:26:44.463Z,90.47
2018-12-06T10:29:14.237Z,93.63
2018-12-06T10:31:43.993Z,91.93
2018-12-06T10:34:13.595Z,99.83
2018-12-06T10:36:43.052Z,89.87
2018-12-06T10:39:12.678Z,86.60
2018-12-06T10:41:42.524Z,84.97
2018-12-06T10:44:21.742Z,84.17
2018-12-06T10:46:52.319Z,77.80
2018-12-06T10:49:21.861Z,80.97
2018-12-06T10:51:51.565Z,88.17
2018-12-06T10:54:21.394Z,83.93
2018-12-06T10:56:51.089Z,79.50
2018-12-06T10:59:20.563Z,81.23
2018-12-06T11:01:55.529Z,80.27
2018-12-06T11:04:29.452Z,79.57
2018-12-06T11:06:59.033Z,78.37
2018-12-06T11:09:28.729Z,70.47
2018-12-06T11:11:58.211Z,79.73
2018-12-06T11:14:27.738Z,79.57
2018-12-06T11:16:57.279Z,86.63
2018-12-06T11:19:26.831Z,80.67
2018-12-06T11:21:56.447Z,76.87
2018-12-06T11:24:26.311Z,82.17
2018-12-06T11:26:55.911Z,80.70
2018-12-06T11:29:25.560Z,77.80
2018-12-06T11:31:55.047Z,77.17
2018-12-06T11:34:24.730Z,76.53
2018-12-06T11:36:54.241Z,71.87
2018-12-06T11:39:23.797Z,73.27
2018-12-06T11:41:53.333Z,76.87
2018-12-06T11:44:22.708Z,79.77
2018-12-06T11:46:52.241Z,73.10
2018-12-06T11:49:21.775Z,77.83
2018-12-06T11:51:51.425Z,77.33
2018-12-06T11:54:21.071Z,77.10
2018-12-06T11:56:50.903Z,73.57
2018-12-06T11:59:20.573Z,72.13
2018-12-06T12:01:51.283Z,81.03
2018-12-06T12:04:20.941Z,70.60
2018-12-06T12:06:51.504Z,71.73
2018-12-06T12:09:21.339Z,74.90
2018-12-06T12:11:50.911Z,71.67
2018-12-06T12:14:22.482Z,75.57
2018-12-06T12:16:52.308Z,76.47
2018-12-06T12:19:21.879Z,87.27
2018-12-06T12:21:51.620Z,81.73
2018-12-06T12:24:21.097Z,88.33
2018-12-06T12:26:50.783Z,94.53
2018-12-06T12:29:20.266Z,85.33
2018-12-06T12:31:49.997Z,87.37
2018-12-06T12:34:19.459Z,87.10
2018-12-06T12:36:48.907Z,92.37
2018-12-06T12:39:18.741Z,89.30
2018-12-06T12:41:48.480Z,83.30
2018-12-06T12:44:18.053Z,87.73
2018-12-06T12:46:47.676Z,88.53
2018-12-06T12:49:17.256Z,91.83
2018-12-06T12:51:46.904Z,91.20
2018-12-06T12:54:16.567Z,90.90
2018-12-06T12:56:46.423Z,95.00
2018-12-06T12:59:16.046Z,90.53
2018-12-06T13:01:45.540Z,84.63
2018-12-06T13:04:15.246Z,86.60
2018-12-06T13:06:44.870Z,85.93
2018-12-06T13:09:14.628Z,90.37
2018-12-06T13:11:44.423Z,100.93
2018-12-06T13:14:14.294Z,96.83
2018-12-06T13:16:43.774Z,83.73
2018-12-06T13:19:13.562Z,93.07
2018-12-06T13:21:43.140Z,97.83
2018-12-06T13:24:12.547Z,89.43
2018-12-06T13:26:42.332Z,93.57
2018-12-06T13:29:11.920Z,89.27
2018-12-06T13:31:43.251Z,79.77
2018-12-06T13:34:12.872Z,87.97
2018-12-06T13:36:42.578Z,83.13
2018-12-06T13:39:12.212Z,87.03
2018-12-06T13:41:41.850Z,73.63
2018-12-06T13:44:11.255Z,71.13
2018-12-06T13:46:41.858Z,76.07
2018-12-06T13:49:11.581Z,70.60
2018-12-06T13:51:41.174Z,71.17
2018-12-06T13:54:10.621Z,75.93
2018-12-06T13:56:40.410Z,74.47
2018-12-06T13:59:10.003Z,70.40
2018-12-06T14:01:39.584Z,68.97
2018-12-06T14:04:09.438Z,77.50
2018-12-06T14:06:39.070Z,70.13
2018-12-06T14:09:08.640Z,77.63
2018-12-06T14:11:38.222Z,69.40
2018-12-06T14:14:07.785Z,69.43
2018-12-06T14:16:37.578Z,63.33
2018-12-06T14:19:07.216Z,64.37
2018-12-06T14:21:36.681Z,64.17
2018-12-06T14:24:06.542Z,74.43
2018-12-06T14:26:36.268Z,73.60
2018-12-06T14:29:05.750Z,78.30
2018-12-06T14:31:35.388Z,75.50
2018-12-06T14:34:11.323Z,71.47
2018-12-06T14:36:40.784Z,80.03
2018-12-06T14:39:10.190Z,77.53
2018-12-06T14:41:39.671Z,77.77
2018-12-06T14:44:09.592Z,79.20
2018-12-06T14:46:39.176Z,71.77
2018-12-06T14:49:09.054Z,73.37
2018-12-06T14:51:38.775Z,65.10
2018-12-06T14:54:08.607Z,68.77
2018-12-06T14:56:38.840Z,65.63
2018-12-06T14:59:08.778Z,70.27
2018-12-06T15:01:39.359Z,67.93
2018-12-06T15:04:09.140Z,66.57
2018-12-06T15:06:38.898Z,60.73
2018-12-06T15:09:09.147Z,67.13
2018-12-06T15:11:44.541Z,64.67
2018-12-06T18:26:00.272Z,69.43
2018-12-06T18:28:29.680Z,68.03
2018-12-06T18:30:59.545Z,70.87
2018-12-06T18:33:28.621Z,69.93
2018-12-06T18:35:57.813Z,77.73
2018-12-06T18:38:26.875Z,73.00
2018-12-06T18:40:55.986Z,68.67
2018-12-06T18:43:27.023Z,76.20
2018-12-06T18:45:56.391Z,74.20
2018-12-06T18:48:25.661Z,72.63
2018-12-06T18:50:55.401Z,71.10
2018-12-06T18:53:24.463Z,70.23
2018-12-06T18:55:53.841Z,67.00
2018-12-06T18:58:22.899Z,78.07
2018-12-06T19:00:52.777Z,70.63
2018-12-06T19:03:22.050Z,75.50
2018-12-06T19:05:51.661Z,66.47
2018-12-06T19:08:21.417Z,74.17
2018-12-06T19:10:51.171Z,75.80
2018-12-06T19:13:20.299Z,76.33
2018-12-06T19:15:49.351Z,75.03
2018-12-06T19:18:18.933Z,73.30
2018-12-06T19:20:48.257Z,69.77
2018-12-06T19:23:17.681Z,70.23
2018-12-06T19:25:46.843Z,69.10
2018-12-06T19:28:16.214Z,75.30
2018-12-06T19:30:45.913Z,73.80
2018-12-06T19:33:15.811Z,76.60
2018-12-06T19:35:44.928Z,72.80
2018-12-06T19:38:14.448Z,72.17
2018-12-06T19:40:44.029Z,76.40
2018-12-06T19:43:14.463Z,72.87
2018-12-06T19:45:43.855Z,73.57
2018-12-06T19:48:13.443Z,70.00
2018-12-06T19:50:42.731Z,76.87
2018-12-06T19:53:11.806Z,72.90
2018-12-06T19:55:41.588Z,77.57
2018-12-06T19:58:10.656Z,80.23
2018-12-06T20:00:40.278Z,73.23
2018-12-06T20:03:10.260Z,72.27
2018-12-06T20:05:39.473Z,76.37
2018-12-06T20:08:09.283Z,77.63
2018-12-06T20:10:38.999Z,81.30
2018-12-06T20:13:08.293Z,75.23
2018-12-06T20:15:37.381Z,77.50
2018-12-06T20:18:07.161Z,75.43
2018-12-06T20:20:36.248Z,84.07
2018-12-06T20:23:06.194Z,81.87
2018-12-06T20:25:39.431Z,80.50
2018-12-06T20:28:10.301Z,89.07
2018-12-06T20:30:39.417Z,89.40
2018-12-06T20:33:08.735Z,87.13
2018-12-06T20:35:37.933Z,83.27
2018-12-06T20:38:07.336Z,85.10
2018-12-06T20:40:36.479Z,88.80
2018-12-06T20:43:05.737Z,91.90
2018-12-06T20:45:34.918Z,96.23
2018-12-06T20:48:03.966Z,100.03
2018-12-06T20:50:33.020Z,92.00
2018-12-06T20:53:02.084Z,93.67
2018-12-06T20:55:31.451Z,91.27
2018-12-06T20:58:00.561Z,89.57
2018-12-06T21:00:29.839Z,91.73
2018-12-06T21:02:58.914Z,90.33
2018-12-06T21:05:28.297Z,90.67
2018-12-06T21:07:58.457Z,92.63
2018-12-06T21:10:27.486Z,88.37
2018-12-06T21:12:56.552Z,88.47
2018-12-06T21:15:25.579Z,87.97
2018-12-06T21:17:54.854Z,98.00
2018-12-06T21:20:24.012Z,86.53
2018-12-06T21:22:53.104Z,94.90
2018-12-06T21:25:22.367Z,87.03
2018-12-06T21:27:51.643Z,87.57
2018-12-06T21:30:20.740Z,81.47
2018-12-06T21:32:50.257Z,80.53
2018-12-06T21:35:19.380Z,89.07
2018-12-06T21:37:48.622Z,88.37
2018-12-06T21:40:17.784Z,88.53
2018-12-06T21:42:46.866Z,86.60
2018-12-06T21:45:16.102Z,84.47
2018-12-06T21:47:45.164Z,84.87
2018-12-06T21:50:15.998Z,85.37
2018-12-06T21:52:45.088Z,76.73
2018-12-06T21:55:14.206Z,87.37
2018-12-06T21:57:43.508Z,89.13
2018-12-06T22:00:12.898Z,85.70
2018-12-06T22:02:42.046Z,94.03
2018-12-06T22:05:11.429Z,81.23
2018-12-06T22:07:40.482Z,81.03
2018-12-06T22:10:09.675Z,86.60
2018-12-06T22:12:39.049Z,82.33
2018-12-06T22:15:08.188Z,94.67
2018-12-06T22:17:37.292Z,85.40
2018-12-06T22:20:07.404Z,88.70
2018-12-06T22:22:36.479Z,88.83
2018-12-06T22:25:05.876Z,86.30
2018-12-06T22:27:35.072Z,90.50
2018-12-06T22:30:05.546Z,81.97
2018-12-06T22:32:34.738Z,85.63
2018-12-06T22:35:03.970Z,89.10
2018-12-06T22:37:33.034Z,85.93
2018-12-06T22:40:02.077Z,80.13
2018-12-06T22:42:31.145Z,79.90
2018-12-06T22:46:06.266Z,84.00
2018-12-06T22:48:35.365Z,88.20
2018-12-06T22:51:04.582Z,84.43
2018-12-06T22:53:33.666Z,84.60
2018-12-06T22:56:02.858Z,94.13
2018-12-06T22:58:31.858Z,83.40
2018-12-06T23:01:02.131Z,87.80
2018-12-06T23:03:33.216Z,86.13
2018-12-06T23:06:02.274Z,91.67
2018-12-06T23:08:31.432Z,91.03
2018-12-06T23:11:00.490Z,94.33
2018-12-06T23:13:29.553Z,83.23
2018-12-06T23:15:59.052Z,85.50
2018-12-06T23:18:28.077Z,87.17
2018-12-06T23:27:49.138Z,92.73
2018-12-06T23:30:18.490Z,90.93
2018-12-06T23:32:47.596Z,90.80
2018-12-06T23:35:16.861Z,84.77
2018-12-06T23:37:45.927Z,82.00
2018-12-06T23:40:14.957Z,82.90
2018-12-06T23:42:44.045Z,93.73
2018-12-06T23:45:13.289Z,88.60
2018-12-06T23:47:42.340Z,94.83
2018-12-06T23:50:11.493Z,93.10
2018-12-06T23:52:40.550Z,90.50
2018-12-06T23:55:10.823Z,89.23
2018-12-06T23:57:39.885Z,85.63
